Time;durP1;ratioP1;P1;durP2;ratioP2;P2;SDS_P1;SDS_P2;PMS_P1;PMS_P2;Temp;Humidity;BMP_temperature;BMP_pressure;BME280_temperature;BME280_humidity;BME280_pressure;Samples;Min_cycle;Max_cycle;Signal;HPM_P1;HPM_P2
2022/08/22 00:00:39;;;;;;;;;;;;;;;21.99;59.33;101356.41;1053607;28;681;-67
2022/08/22 00:01:30;;;;;;;;;;;;;;;22.01;58.98;101354.44;1052666;28;1948;-67
2022/08/22 00:02:22;;;;;;;;;;;;;;;22.01;59.20;101350.84;1052518;28;682;-67
2022/08/22 00:03:12;;;;;;;;;;;;;;;22.02;59.14;101356.13;1052496;28;618;-67
2022/08/22 00:04:03;;;;;;;;;;;;;;;21.99;58.91;101345.56;1048088;28;728;-68
2022/08/22 00:04:53;;;;;;;;;;;;;;;22.01;59.07;101356.28;1048735;28;638;-67
2022/08/22 00:05:44;;;;;;;;;;;;;;;21.99;59.29;101359.13;1052429;28;632;-67
2022/08/22 00:06:34;;;;;;;;;;;;;;;21.98;59.47;101353.84;1052270;28;629;-68
2022/08/22 00:07:24;;;;;;;;;;;;;;;22.00;59.40;101351.88;1052456;28;700;-69
2022/08/22 00:08:15;;;;;;;;;;;;;;;22.01;59.26;101349.00;1052633;28;649;-68
2022/08/22 00:09:05;;;;;;;;;;;;;;;22.00;58.97;101349.16;1052460;28;638;-68
2022/08/22 00:09:56;;;;;;;;;;;;;;;22.04;59.30;101358.66;1053155;28;652;-68
2022/08/22 00:10:46;;;;;;;;;;;;;;;22.01;59.19;101351.72;1047967;28;807;-68
2022/08/22 00:11:37;;;;;;;;;;;;;;;22.01;59.40;101350.84;1048111;28;619;-68
2022/08/22 00:12:28;;;;;;;;;;;;;;;21.99;59.23;101350.13;1053433;28;1250;-68
2022/08/22 00:13:18;;;;;;;;;;;;;;;21.98;59.33;101353.84;1053067;28;637;-68
2022/08/22 00:14:09;;;;;;;;;;;;;;;21.97;59.37;101349.44;1049720;28;685;-68
2022/08/22 00:14:59;;;;;;;;;;;;;;;21.95;59.47;101359.59;1048629;28;646;-68
2022/08/22 00:15:50;;;;;;;;;;;;;;;21.96;59.16;101353.16;1048643;28;657;-68
2022/08/22 00:16:41;;;;;;;;;;;;;;;21.99;59.39;101347.41;1048725;28;693;-68
2022/08/22 00:17:31;;;;;;;;;;;;;;;21.96;59.44;101354.00;1049881;28;794;-65
2022/08/22 00:18:22;;;;;;;;;;;;;;;21.96;59.36;101345.03;1049133;28;703;-66
2022/08/22 00:19:12;;;;;;;;;;;;;;;21.98;59.11;101343.00;1053179;28;645;-66
2022/08/22 00:20:03;;;;;;;;;;;;;;;21.97;59.10;101349.44;1052967;28;629;-66
2022/08/22 00:20:53;;;;;;;;;;;;;;;21.98;59.29;101343.00;1053271;28;673;-66
2022/08/22 00:21:43;;;;;;;;;;;;;;;21.97;59.43;101346.72;1052641;28;637;-67
2022/08/22 00:22:34;;;;;;;;;;;;;;;21.96;59.26;101340.44;1052972;28;658;-67
2022/08/22 00:23:24;;;;;;;;;;;;;;;21.97;59.35;101346.72;1048577;28;634;-69
2022/08/22 00:24:15;;;;;;;;;;;;;;;21.96;59.56;101347.75;1049230;28;727;-67
2022/08/22 00:25:06;;;;;;;;;;;;;;;21.95;59.52;101351.47;1052536;28;610;-67
2022/08/22 00:25:56;;;;;;;;;;;;;;;21.96;59.55;101345.03;1049859;28;766;-67
2022/08/22 00:26:47;;;;;;;;;;;;;;;21.96;59.48;101353.16;1049164;28;676;-67
2022/08/22 00:27:38;;;;;;;;;;;;;;;21.96;59.35;101353.16;1053665;28;719;-67
2022/08/22 00:28:28;;;;;;;;;;;;;;;21.94;59.46;101349.75;1052440;28;629;-67
2022/08/22 00:29:19;;;;;;;;;;;;;;;21.93;59.26;101346.19;1053018;28;629;-67
2022/08/22 00:30:09;;;;;;;;;;;;;;;21.91;59.66;101350.06;1048621;28;720;-67
2022/08/22 00:30:59;;;;;;;;;;;;;;;21.91;59.67;101353.63;1049768;28;633;-67
2022/08/22 00:31:50;;;;;;;;;;;;;;;21.92;59.91;101355.34;1053123;28;681;-67
2022/08/22 00:32:41;;;;;;;;;;;;;;;21.91;59.67;101355.50;1052531;28;709;-67
2022/08/22 00:33:31;;;;;;;;;;;;;;;21.92;59.67;101343.63;1052333;28;705;-67
2022/08/22 00:34:22;;;;;;;;;;;;;;;21.89;59.70;101352.94;1052449;28;700;-67
2022/08/22 00:35:12;;;;;;;;;;;;;;;21.90;59.56;101360.06;1052770;28;638;-68
2022/08/22 00:36:02;;;;;;;;;;;;;;;21.90;59.59;101351.09;1051929;28;685;-67
2022/08/22 00:36:53;;;;;;;;;;;;;;;21.90;59.46;101351.09;1048636;28;713;-68
2022/08/22 00:37:43;;;;;;;;;;;;;;;21.91;59.43;101345.50;1049146;28;673;-68
2022/08/22 00:38:34;;;;;;;;;;;;;;;21.90;59.61;101349.22;1049650;28;661;-66
2022/08/22 00:39:24;;;;;;;;;;;;;;;21.90;59.73;101345.66;1049715;28;687;-68
2022/08/22 00:40:15;;;;;;;;;;;;;;;21.90;59.73;101353.81;1048856;28;1133;-66
2022/08/22 00:41:05;;;;;;;;;;;;;;;21.91;59.79;101353.63;1048684;28;637;-66
2022/08/22 00:41:55;;;;;;;;;;;;;;;21.89;59.67;101343.94;1048628;28;633;-67
2022/08/22 00:42:46;;;;;;;;;;;;;;;21.88;59.54;101356.66;1053040;28;664;-67
2022/08/22 00:43:36;;;;;;;;;;;;;;;21.90;59.68;101351.09;1052843;28;629;-67
2022/08/22 00:44:27;;;;;;;;;;;;;;;21.91;59.70;101350.06;1049671;28;657;-67
2022/08/22 00:45:17;;;;;;;;;;;;;;;21.89;59.73;101352.09;1048581;28;740;-66
2022/08/22 00:46:07;;;;;;;;;;;;;;;21.89;59.62;101349.38;1047997;28;642;-67
2022/08/22 00:46:58;;;;;;;;;;;;;;;21.88;59.43;101347.69;1053115;28;737;-67
2022/08/22 00:47:48;;;;;;;;;;;;;;;21.89;59.64;101352.09;1052942;28;641;-66
2022/08/22 00:48:39;;;;;;;;;;;;;;;21.87;59.59;101348.69;1049694;28;676;-67
2022/08/22 00:49:29;;;;;;;;;;;;;;;21.87;59.28;101351.41;1049036;28;681;-67
2022/08/22 00:50:20;;;;;;;;;;;;;;;21.88;59.61;101353.09;1052984;28;637;-67
2022/08/22 00:51:10;;;;;;;;;;;;;;;21.87;59.43;101348.69;1053607;28;661;-67
2022/08/22 00:52:01;;;;;;;;;;;;;;;21.87;59.62;101356.81;1052982;28;700;-67
2022/08/22 00:52:51;;;;;;;;;;;;;;;21.87;59.51;101354.13;1049717;28;626;-67
2022/08/22 00:53:42;;;;;;;;;;;;;;;21.84;59.74;101358.03;1048496;28;640;-66
2022/08/22 00:54:32;;;;;;;;;;;;;;;21.83;59.94;101365.31;1049220;28;645;-68
2022/08/22 00:55:22;;;;;;;;;;;;;;;21.82;59.72;101360.03;1049755;28;603;-67
2022/08/22 00:56:13;;;;;;;;;;;;;;;21.84;59.50;101363.47;1049079;28;617;-67
2022/08/22 00:57:03;;;;;;;;;;;;;;;21.83;59.88;101361.75;1052398;28;665;-67
2022/08/22 00:57:54;;;;;;;;;;;;;;;21.85;59.66;101369.72;1053004;28;724;-67
2022/08/22 00:58:44;;;;;;;;;;;;;;;21.83;59.86;101365.31;1052866;28;622;-67
2022/08/22 00:59:35;;;;;;;;;;;;;;;21.83;59.64;101362.59;1053013;28;633;-67
2022/08/22 01:00:25;;;;;;;;;;;;;;;21.84;59.70;101360.75;1049591;28;748;-67
2022/08/22 01:01:15;;;;;;;;;;;;;;;21.85;59.87;101361.59;1048454;28;1901;-67
2022/08/22 01:02:06;;;;;;;;;;;;;;;21.83;59.78;101362.59;1048580;28;646;-67
2022/08/22 01:02:56;;;;;;;;;;;;;;;21.83;59.61;101365.31;1048520;28;626;-67
2022/08/22 01:03:47;;;;;;;;;;;;;;;21.83;59.41;101362.59;1052427;28;610;-67
2022/08/22 01:04:37;;;;;;;;;;;;;;;21.80;59.62;101365.63;1053003;28;637;-67
2022/08/22 01:05:28;;;;;;;;;;;;;;;21.78;59.82;101362.22;1052943;28;626;-67
2022/08/22 01:06:18;;;;;;;;;;;;;;;21.79;60.01;101365.78;1053011;28;646;-67
2022/08/22 01:07:09;;;;;;;;;;;;;;;21.81;59.61;101359.19;1053003;28;626;-67
2022/08/22 01:08:00;;;;;;;;;;;;;;;21.80;59.87;101356.63;1053003;28;637;-67
2022/08/22 01:08:50;;;;;;;;;;;;;;;21.82;59.76;101362.75;1052966;28;622;-67
2022/08/22 01:09:41;;;;;;;;;;;;;;;21.81;59.67;101361.91;1052906;28;606;-67
2022/08/22 01:10:31;;;;;;;;;;;;;;;21.81;59.66;101363.78;1052980;28;692;-67
2022/08/22 01:11:22;;;;;;;;;;;;;;;21.81;59.76;101363.78;1052928;28;641;-67
2022/08/22 01:12:12;;;;;;;;;;;;;;;21.79;59.84;101354.94;1053045;28;1196;-67
2022/08/22 01:13:03;;;;;;;;;;;;;;;21.79;59.94;101361.22;1052410;28;605;-67
2022/08/22 01:13:53;;;;;;;;;;;;;;;21.78;60.05;101367.66;1052564;28;525;-67
2022/08/22 01:14:43;;;;;;;;;;;;;;;21.80;59.69;101364.78;1048954;28;669;-67
2022/08/22 01:15:34;;;;;;;;;;;;;;;21.78;59.69;101359.50;1048551;28;716;-67
2022/08/22 01:16:25;;;;;;;;;;;;;;;21.80;59.75;101367.50;1048002;28;685;-67
2022/08/22 01:17:15;;;;;;;;;;;;;;;21.79;59.90;101361.22;1048410;28;630;-67
2022/08/22 01:18:06;;;;;;;;;;;;;;;21.76;59.98;101361.53;1054112;28;633;-67
2022/08/22 01:18:56;;;;;;;;;;;;;;;21.76;60.06;101364.25;1053332;28;674;-67
2022/08/22 01:19:47;;;;;;;;;;;;;;;21.75;59.88;101358.97;1052751;28;614;-67
2022/08/22 01:20:38;;;;;;;;;;;;;;;21.74;59.94;101366.25;1050009;28;641;-67
2022/08/22 01:21:28;;;;;;;;;;;;;;;21.74;59.96;101362.69;1049369;28;1951;-66
2022/08/22 01:22:18;;;;;;;;;;;;;;;21.75;60.04;101365.25;1053693;28;751;-67
2022/08/22 01:23:09;;;;;;;;;;;;;;;21.75;59.86;101365.25;1053298;28;701;-67
2022/08/22 01:23:59;;;;;;;;;;;;;;;21.77;60.05;101367.81;1049802;28;704;-67
2022/08/22 01:25:58;;;;;;;;;;;;;;;21.77;59.96;101365.09;1053089;28;649;-67
2022/08/22 01:26:49;;;;;;;;;;;;;;;21.76;59.86;101366.94;1053368;28;739;-66
2022/08/22 01:27:40;;;;;;;;;;;;;;;21.76;59.90;101366.09;1049860;28;633;-67
2022/08/22 01:28:30;;;;;;;;;;;;;;;21.71;60.07;101365.72;1050495;28;684;-67
2022/08/22 01:29:21;;;;;;;;;;;;;;;21.72;59.93;101368.28;1053782;28;645;-67
2022/08/22 01:30:11;;;;;;;;;;;;;;;21.70;60.05;101369.44;1049929;28;731;-67
2022/08/22 01:31:02;;;;;;;;;;;;;;;21.71;59.91;101363.00;1049221;28;692;-67
2022/08/22 01:31:52;;;;;;;;;;;;;;;21.74;60.13;101371.69;1053648;28;693;-67
2022/08/22 01:32:43;;;;;;;;;;;;;;;21.75;59.96;101358.97;1053094;28;644;-67
2022/08/22 01:33:33;;;;;;;;;;;;;;;21.71;60.08;101363.00;1053060;28;642;-67
2022/08/22 01:34:24;;;;;;;;;;;;;;;21.72;60.05;101365.56;1053230;28;634;-67
2022/08/22 01:35:14;;;;;;;;;;;;;;;21.73;60.00;101356.41;1053008;28;646;-66
2022/08/22 01:36:05;;;;;;;;;;;;;;;21.72;60.21;101360.13;1054351;28;653;-66
2022/08/22 01:36:56;;;;;;;;;;;;;;;21.73;59.87;101358.28;1054831;28;648;-66
2022/08/22 01:37:46;;;;;;;;;;;;;;;21.72;59.95;101360.13;1054740;28;692;-66
2022/08/22 01:38:36;;;;;;;;;;;;;;;21.69;60.14;101365.03;1049786;28;704;-66
2022/08/22 01:39:27;;;;;;;;;;;;;;;21.70;60.07;101364.88;1049304;28;724;-67
2022/08/22 01:40:17;;;;;;;;;;;;;;;21.70;60.14;101358.59;1048487;28;1109;-67
2022/08/22 01:41:09;;;;;;;;;;;;;;;21.69;60.24;101359.59;1049758;28;649;-67
2022/08/22 01:41:59;;;;;;;;;;;;;;;21.71;60.17;101355.72;1053042;28;728;-67
2022/08/22 01:42:50;;;;;;;;;;;;;;;21.68;60.02;101363.31;1053088;28;681;-67
2022/08/22 01:43:40;;;;;;;;;;;;;;;21.68;60.15;101358.75;1054270;28;637;-67
2022/08/22 01:44:31;;;;;;;;;;;;;;;21.67;60.18;101361.66;1053130;28;632;-67
2022/08/22 01:45:22;;;;;;;;;;;;;;;21.64;60.37;101360.09;1049816;28;700;-66
2022/08/22 01:46:12;;;;;;;;;;;;;;;21.65;60.20;101355.53;1050292;28;653;-67
2022/08/22 01:47:02;;;;;;;;;;;;;;;21.66;60.07;101358.09;1053627;28;591;-67
2022/08/22 01:47:53;;;;;;;;;;;;;;;21.69;60.17;101363.16;1053122;28;688;-67
2022/08/22 01:48:43;;;;;;;;;;;;;;;21.68;60.10;101364.16;1049316;28;661;-67
2022/08/22 01:49:34;;;;;;;;;;;;;;;21.68;60.17;101369.59;1049245;28;637;-67
2022/08/22 01:50:24;;;;;;;;;;;;;;;21.64;60.00;101360.09;1053629;28;646;-67
2022/08/22 01:51:14;;;;;;;;;;;;;;;21.66;60.05;101371.66;1054881;28;630;-67
2022/08/22 01:52:05;;;;;;;;;;;;;;;21.67;60.30;101364.34;1053075;28;622;-67
2022/08/22 01:52:55;;;;;;;;;;;;;;;21.66;60.13;101366.22;1049801;28;680;-67
2022/08/22 01:53:46;;;;;;;;;;;;;;;21.68;60.00;101358.75;1049241;28;677;-67
2022/08/22 01:54:37;;;;;;;;;;;;;;;21.71;60.20;101372.00;1048664;28;622;-67
2022/08/22 01:55:27;;;;;;;;;;;;;;;21.70;60.14;101364.00;1049231;28;689;-68
2022/08/22 01:56:18;;;;;;;;;;;;;;;21.68;60.06;101358.75;1054188;28;641;-67
2022/08/22 01:57:08;;;;;;;;;;;;;;;21.67;60.26;101362.50;1053226;28;661;-67
2022/08/22 01:57:59;;;;;;;;;;;;;;;21.67;60.42;101365.22;1052964;28;681;-67
2022/08/22 01:58:49;;;;;;;;;;;;;;;21.62;60.22;101364.81;1053224;28;653;-67
2022/08/22 01:59:40;;;;;;;;;;;;;;;21.62;60.25;101362.13;1053023;28;602;-67
2022/08/22 02:00:30;;;;;;;;;;;;;;;21.63;60.29;101361.09;1053159;28;709;-67
2022/08/22 02:01:20;;;;;;;;;;;;;;;21.65;60.08;101369.94;1052884;28;1897;-67
2022/08/22 02:02:11;;;;;;;;;;;;;;;21.67;60.07;101362.50;1053142;28;661;-67
2022/08/22 02:03:02;;;;;;;;;;;;;;;21.66;60.07;101366.22;1053731;28;712;-67
2022/08/22 02:03:52;;;;;;;;;;;;;;;21.67;60.19;101370.63;1053180;28;645;-67
2022/08/22 02:04:43;;;;;;;;;;;;;;;21.66;60.26;101366.22;1049663;28;626;-67
2022/08/22 02:05:36;;;;;;;;;;;;;;;21.66;60.38;101360.78;1049188;28;661;-67
2022/08/22 02:06:26;;;;;;;;;;;;;;;21.65;60.06;101369.09;1050335;28;657;-67
2022/08/22 02:07:16;;;;;;;;;;;;;;;21.66;60.17;101360.78;1050408;28;645;-68
2022/08/22 02:08:07;;;;;;;;;;;;;;;21.67;60.00;101367.91;1053643;28;618;-67
2022/08/22 02:08:57;;;;;;;;;;;;;;;21.63;60.30;101363.81;1054781;28;739;-67
2022/08/22 02:09:48;;;;;;;;;;;;;;;21.61;60.41;101362.28;1053059;28;629;-67
2022/08/22 02:10:38;;;;;;;;;;;;;;;21.60;60.14;101356.00;1053151;28;732;-67
2022/08/22 02:11:29;;;;;;;;;;;;;;;21.60;60.92;101363.28;1054193;28;673;-68
2022/08/22 02:12:19;;;;;;;;;;;;;;;21.59;60.59;101359.72;1053098;28;1254;-67
2022/08/22 02:13:09;;;;;;;;;;;;;;;21.57;60.52;101356.31;1050181;28;730;-67
2022/08/22 02:14:00;;;;;;;;;;;;;;;21.57;60.58;101356.31;1049659;28;657;-67
2022/08/22 02:14:50;;;;;;;;;;;;;;;21.59;60.37;101354.28;1053753;28;597;-67
2022/08/22 02:15:41;;;;;;;;;;;;;;;21.61;60.48;101356.84;1053583;28;669;-67
2022/08/22 02:16:32;;;;;;;;;;;;;;;21.62;60.45;101356.69;1053649;28;639;-67
2022/08/22 02:17:22;;;;;;;;;;;;;;;21.62;60.46;101356.69;1052980;28;626;-67
2022/08/22 02:18:13;;;;;;;;;;;;;;;21.58;60.57;101351.72;1053602;28;661;-67
2022/08/22 02:19:03;;;;;;;;;;;;;;;21.57;60.51;101350.88;1053389;28;776;-67
2022/08/22 02:19:54;;;;;;;;;;;;;;;21.55;60.62;101350.19;1053527;28;610;-67
2022/08/22 02:20:44;;;;;;;;;;;;;;;21.58;60.47;101357.16;1053497;28;697;-67
2022/08/22 02:21:35;;;;;;;;;;;;;;;21.57;60.33;101355.44;1053377;28;1948;-68
2022/08/22 02:22:25;;;;;;;;;;;;;;;21.57;60.89;101353.59;1053688;28;685;-67
2022/08/22 02:23:16;;;;;;;;;;;;;;;21.58;60.47;101355.28;1053418;28;692;-67
2022/08/22 02:24:07;;;;;;;;;;;;;;;21.57;60.37;101355.44;1053547;28;625;-67
2022/08/22 02:24:57;;;;;;;;;;;;;;;21.59;60.54;101357.00;1053528;28;767;-67
2022/08/22 02:25:47;;;;;;;;;;;;;;;21.58;60.42;101358.00;1053522;28;704;-67
2022/08/22 02:26:38;;;;;;;;;;;;;;;21.55;60.41;101352.91;1053557;28;633;-67
2022/08/22 02:27:28;;;;;;;;;;;;;;;21.54;60.60;101353.06;1053637;28;689;-66
2022/08/22 02:28:19;;;;;;;;;;;;;;;21.53;60.50;101354.06;1053431;28;630;-67
2022/08/22 02:29:09;;;;;;;;;;;;;;;21.53;60.48;101357.63;1050184;28;708;-66
2022/08/22 02:30:00;;;;;;;;;;;;;;;21.55;60.45;101354.75;1049221;28;641;-66
2022/08/22 02:30:50;;;;;;;;;;;;;;;21.54;60.48;101359.31;1053526;28;787;-66
2022/08/22 02:31:41;;;;;;;;;;;;;;;21.55;60.35;101349.31;1049591;28;747;-66
2022/08/22 02:32:31;;;;;;;;;;;;;;;21.56;60.17;101354.59;1049641;28;646;-66
2022/08/22 02:33:22;;;;;;;;;;;;;;;21.55;60.28;101352.91;1053463;28;645;-66
2022/08/22 02:34:13;;;;;;;;;;;;;;;21.53;60.49;101356.78;1050218;28;654;-66
2022/08/22 02:35:03;;;;;;;;;;;;;;;21.53;60.41;101354.91;1049088;28;732;-66
2022/08/22 02:35:53;;;;;;;;;;;;;;;21.50;60.70;101347.09;1048940;28;646;-66
2022/08/22 02:36:44;;;;;;;;;;;;;;;21.53;60.49;101352.19;1049140;28;739;-66
2022/08/22 02:37:34;;;;;;;;;;;;;;;21.53;60.46;101349.47;1052818;28;653;-67
2022/08/22 02:38:25;;;;;;;;;;;;;;;21.54;60.32;101350.34;1053560;28;630;-67
2022/08/22 02:39:15;;;;;;;;;;;;;;;21.55;60.40;101350.19;1050144;28;848;-66
2022/08/22 02:40:06;;;;;;;;;;;;;;;21.55;60.50;101349.31;1048749;28;1141;-67
2022/08/22 02:40:57;;;;;;;;;;;;;;;21.54;60.43;101345.75;1054035;28;680;-67
2022/08/22 02:41:47;;;;;;;;;;;;;;;21.53;60.43;101348.63;1053594;28;566;-67
2022/08/22 02:42:38;;;;;;;;;;;;;;;21.50;60.77;101352.50;1053532;28;622;-67
2022/08/22 02:43:28;;;;;;;;;;;;;;;21.51;60.44;101346.06;1053541;28;685;-66
2022/08/22 02:44:19;;;;;;;;;;;;;;;21.49;60.73;101348.13;1053316;28;665;-67
2022/08/22 02:45:09;;;;;;;;;;;;;;;21.49;60.63;101345.41;1054011;28;712;-67
2022/08/22 02:46:00;;;;;;;;;;;;;;;21.49;60.60;101348.13;1053364;28;629;-67
2022/08/22 02:46:50;;;;;;;;;;;;;;;21.48;60.82;101341.84;1053136;28;661;-67
2022/08/22 02:47:40;;;;;;;;;;;;;;;21.45;60.81;101341.31;1050167;28;629;-66
2022/08/22 02:48:31;;;;;;;;;;;;;;;21.46;60.67;101343.00;1049608;28;632;-67
2022/08/22 02:49:21;;;;;;;;;;;;;;;21.48;60.59;101336.44;1053337;28;670;-67
2022/08/22 02:50:12;;;;;;;;;;;;;;;21.50;60.45;101338.94;1053433;28;616;-67
2022/08/22 02:51:02;;;;;;;;;;;;;;;21.46;61.04;101338.44;1053530;28;649;-67
2022/08/22 02:51:53;;;;;;;;;;;;;;;21.47;60.72;101340.16;1053404;28;641;-67
2022/08/22 02:52:43;;;;;;;;;;;;;;;21.44;60.82;101345.88;1053375;28;657;-67
2022/08/22 02:53:34;;;;;;;;;;;;;;;21.45;60.67;101342.16;1053419;28;642;-67
2022/08/22 02:54:24;;;;;;;;;;;;;;;21.46;60.75;101346.56;1053994;28;648;-67
2022/08/22 02:55:15;;;;;;;;;;;;;;;21.45;60.56;101342.16;1054058;28;859;-67
2022/08/22 02:56:05;;;;;;;;;;;;;;;21.47;60.54;101345.56;1053455;28;641;-67
2022/08/22 02:56:56;;;;;;;;;;;;;;;21.45;60.65;101347.59;1053353;28;634;-67
2022/08/22 02:57:46;;;;;;;;;;;;;;;21.47;60.58;101344.72;1050112;28;652;-67
2022/08/22 02:58:37;;;;;;;;;;;;;;;21.47;60.98;101340.16;1048982;28;767;-67
2022/08/22 02:59:27;;;;;;;;;;;;;;;21.49;60.62;101348.13;1050151;28;656;-67
2022/08/22 03:00:17;;;;;;;;;;;;;;;21.46;60.76;101343.00;1053205;28;630;-67
2022/08/22 03:01:08;;;;;;;;;;;;;;;21.45;60.69;101339.44;1052808;28;618;-67
2022/08/22 03:01:58;;;;;;;;;;;;;;;21.47;60.67;101339.28;1053336;28;681;-67
2022/08/22 03:02:49;;;;;;;;;;;;;;;21.46;60.80;101340.31;1053303;28;630;-67
2022/08/22 03:03:39;;;;;;;;;;;;;;;21.46;60.61;101337.59;1053530;28;629;-66
2022/08/22 03:04:30;;;;;;;;;;;;;;;21.45;60.58;101342.16;1053368;28;710;-67
2022/08/22 03:05:20;;;;;;;;;;;;;;;21.46;60.63;101343.00;1053370;28;644;-66
2022/08/22 03:06:11;;;;;;;;;;;;;;;21.44;60.61;101345.88;1053829;28;646;-67
2022/08/22 03:07:01;;;;;;;;;;;;;;;21.40;60.80;101338.22;1053389;28;666;-67
2022/08/22 03:07:52;;;;;;;;;;;;;;;21.40;60.90;101336.34;1053378;28;590;-67
2022/08/22 03:08:42;;;;;;;;;;;;;;;21.44;60.75;101336.88;1053410;28;636;-67
2022/08/22 03:09:32;;;;;;;;;;;;;;;21.42;60.74;101341.63;1053338;28;618;-67
2022/08/22 03:10:23;;;;;;;;;;;;;;;21.42;61.25;101337.03;1053359;28;595;-67
2022/08/22 03:11:13;;;;;;;;;;;;;;;21.44;60.74;101334.19;1049975;28;712;-67
2022/08/22 03:12:04;;;;;;;;;;;;;;;21.36;60.85;101334.97;1048256;28;634;-67
2022/08/22 03:12:54;;;;;;;;;;;;;;;21.37;60.91;101331.22;1049746;28;621;-67
2022/08/22 03:13:45;;;;;;;;;;;;;;;21.41;60.92;101335.34;1049834;28;669;-66
2022/08/22 03:14:35;;;;;;;;;;;;;;;21.36;60.92;101332.25;1049762;28;708;-67
2022/08/22 03:15:26;;;;;;;;;;;;;;;21.35;60.69;101330.53;1049213;28;646;-67
2022/08/22 03:16:16;;;;;;;;;;;;;;;21.35;60.97;101325.13;1053098;28;653;-67
2022/08/22 03:17:06;;;;;;;;;;;;;;;21.35;60.95;101329.69;1054300;28;677;-67
2022/08/22 03:17:57;;;;;;;;;;;;;;;21.34;60.82;101328.84;1049938;28;652;-67
2022/08/22 03:18:47;;;;;;;;;;;;;;;21.36;60.89;101328.69;1049791;28;673;-67
2022/08/22 03:19:38;;;;;;;;;;;;;;;21.35;60.88;101325.13;1049769;28;628;-67
2022/08/22 03:20:28;;;;;;;;;;;;;;;21.36;60.88;101325.97;1049204;28;633;-67
2022/08/22 03:21:19;;;;;;;;;;;;;;;21.34;60.93;101320.69;1049013;28;1933;-66
2022/08/22 03:22:09;;;;;;;;;;;;;;;21.35;60.92;101322.41;1049713;28;693;-67
2022/08/22 03:23:00;;;;;;;;;;;;;;;21.36;60.75;101323.25;1049684;28;688;-67
2022/08/22 03:23:50;;;;;;;;;;;;;;;21.34;60.88;101334.25;1049668;28;693;-66
2022/08/22 03:24:40;;;;;;;;;;;;;;;21.37;61.00;101324.97;1054277;28;637;-67
2022/08/22 03:25:31;;;;;;;;;;;;;;;21.36;60.82;101323.25;1053583;28;697;-67
2022/08/22 03:26:21;;;;;;;;;;;;;;;21.36;60.74;101320.53;1049770;28;724;-67
2022/08/22 03:27:12;;;;;;;;;;;;;;;21.35;60.69;101324.25;1049620;28;677;-67
2022/08/22 03:28:02;;;;;;;;;;;;;;;21.37;60.68;101319.53;1053651;28;645;-67
2022/08/22 03:28:53;;;;;;;;;;;;;;;21.34;61.11;101317.13;1053569;28;612;-67
2022/08/22 03:29:43;;;;;;;;;;;;;;;21.34;60.89;101319.84;1049904;28;645;-67
2022/08/22 03:30:33;;;;;;;;;;;;;;;21.32;61.00;101308.31;1049654;28;736;-67
2022/08/22 03:31:24;;;;;;;;;;;;;;;21.35;60.95;101314.28;1049619;28;618;-66
2022/08/22 03:32:14;;;;;;;;;;;;;;;21.36;60.79;101317.84;1049643;28;626;-67
2022/08/22 03:33:05;;;;;;;;;;;;;;;21.31;60.99;101307.50;1054113;28;770;-66
2022/08/22 03:33:55;;;;;;;;;;;;;;;21.33;61.08;101319.00;1049950;28;621;-67
2022/08/22 03:34:46;;;;;;;;;;;;;;;21.29;61.01;101308.66;1045902;28;641;-67
2022/08/22 03:35:36;;;;;;;;;;;;;;;21.29;61.06;101316.78;1048114;28;686;-67
2022/08/22 03:36:27;;;;;;;;;;;;;;;21.32;61.10;101313.72;1049539;28;613;-67
2022/08/22 03:37:17;;;;;;;;;;;;;;;21.33;61.08;101310.88;1049629;28;630;-66
2022/08/22 03:38:08;;;;;;;;;;;;;;;21.36;60.77;101317.84;1049641;28;634;-65
2022/08/22 03:38:58;;;;;;;;;;;;;;;21.36;60.83;101312.41;1049780;28;669;-67
2022/08/22 03:39:49;;;;;;;;;;;;;;;21.34;61.04;101314.44;1049652;28;618;-66
2022/08/22 03:40:40;;;;;;;;;;;;;;;21.34;60.91;101312.56;1049067;28;653;-66
2022/08/22 03:41:31;;;;;;;;;;;;;;;21.33;60.86;101315.44;1049092;28;1977;-66
2022/08/22 03:42:21;;;;;;;;;;;;;;;21.36;60.92;101309.69;1049608;28;727;-66
2022/08/22 03:43:12;;;;;;;;;;;;;;;21.36;60.88;101321.41;1049668;28;618;-67
2022/08/22 03:44:02;;;;;;;;;;;;;;;21.36;60.84;101304.28;1049776;28;673;-67
2022/08/22 03:44:53;;;;;;;;;;;;;;;21.35;60.86;101308.00;1049645;28;704;-67
2022/08/22 03:45:43;;;;;;;;;;;;;;;21.36;60.79;101307.00;1049674;28;827;-66
2022/08/22 03:46:33;;;;;;;;;;;;;;;21.36;60.63;101301.56;1049489;28;790;-67
2022/08/22 03:47:24;;;;;;;;;;;;;;;21.34;60.92;101306.28;1049638;28;610;-67
2022/08/22 03:48:15;;;;;;;;;;;;;;;21.30;61.03;101305.78;1052933;28;681;-67
2022/08/22 03:49:05;;;;;;;;;;;;;;;21.30;60.81;101299.50;1049736;28;693;-67
2022/08/22 03:49:56;;;;;;;;;;;;;;;21.28;61.04;101298.81;1045157;28;737;-67
2022/08/22 03:50:46;;;;;;;;;;;;;;;21.30;61.07;101311.22;1049636;28;688;-67
2022/08/22 03:51:37;;;;;;;;;;;;;;;21.30;60.92;101302.22;1049645;28;678;-67
2022/08/22 03:52:27;;;;;;;;;;;;;;;21.28;61.06;101312.38;1049633;28;692;-67
2022/08/22 03:53:18;;;;;;;;;;;;;;;21.33;60.82;101304.59;1053980;28;630;-67
2022/08/22 03:54:08;;;;;;;;;;;;;;;21.30;60.92;101307.66;1054575;28;677;-67
2022/08/22 03:54:58;;;;;;;;;;;;;;;21.29;61.02;101309.50;1049748;28;627;-67
2022/08/22 03:55:49;;;;;;;;;;;;;;;21.29;60.88;101312.22;1049656;28;665;-67
2022/08/22 03:56:39;;;;;;;;;;;;;;;21.30;60.86;101304.94;1049580;28;707;-67
2022/08/22 03:57:30;;;;;;;;;;;;;;;21.31;61.01;101312.06;1049560;28;669;-67
2022/08/22 03:58:20;;;;;;;;;;;;;;;21.33;60.84;101310.00;1048986;28;645;-67
2022/08/22 03:59:11;;;;;;;;;;;;;;;21.26;60.91;101298.13;1049050;28;724;-67
2022/08/22 04:00:01;;;;;;;;;;;;;;;21.27;61.01;101305.25;1052930;28;708;-67
2022/08/22 04:00:52;;;;;;;;;;;;;;;21.27;60.99;101303.38;1054717;28;1015;-67
2022/08/22 04:01:42;;;;;;;;;;;;;;;21.27;61.23;101307.94;1049710;28;1959;-66
2022/08/22 04:02:33;;;;;;;;;;;;;;;21.29;61.11;101308.66;1052903;28;621;-67
2022/08/22 04:03:24;;;;;;;;;;;;;;;21.26;61.09;101303.53;1053389;28;689;-67
2022/08/22 04:04:14;;;;;;;;;;;;;;;21.26;61.02;101303.53;1049693;28;723;-67
2022/08/22 04:05:05;;;;;;;;;;;;;;;21.27;61.04;101306.09;1049572;28;613;-67
2022/08/22 04:05:55;;;;;;;;;;;;;;;21.26;61.23;101308.97;1049109;28;712;-67
2022/08/22 04:06:46;;;;;;;;;;;;;;;21.28;61.03;101309.66;1049632;28;676;-67
2022/08/22 04:07:36;;;;;;;;;;;;;;;21.26;60.93;101301.69;1049513;28;641;-67
2022/08/22 04:08:26;;;;;;;;;;;;;;;21.27;61.17;101305.25;1049555;28;633;-67
2022/08/22 04:09:17;;;;;;;;;;;;;;;21.27;60.87;101305.25;1049502;28;618;-67
2022/08/22 04:10:08;;;;;;;;;;;;;;;21.28;61.04;101307.78;1049579;28;715;-67
2022/08/22 04:10:58;;;;;;;;;;;;;;;21.26;61.07;101304.38;1049593;28;728;-67
2022/08/22 04:11:49;;;;;;;;;;;;;;;21.23;60.92;101296.56;1049522;28;751;-67
2022/08/22 04:12:39;;;;;;;;;;;;;;;21.25;61.01;101305.41;1053680;28;1184;-68
2022/08/22 04:13:30;;;;;;;;;;;;;;;21.24;61.12;101300.13;1052241;28;684;-67
2022/08/22 04:14:22;;;;;;;;;;;;;;;21.25;61.08;101302.69;1052459;28;629;-67
2022/08/22 04:15:13;;;;;;;;;;;;;;;21.27;61.29;101305.25;1052582;28;649;-67
2022/08/22 04:16:04;;;;;;;;;;;;;;;21.24;61.08;101300.97;1052684;28;693;-67
2022/08/22 04:16:55;;;;;;;;;;;;;;;21.26;61.01;101298.13;1052556;28;677;-67
2022/08/22 04:17:45;;;;;;;;;;;;;;;21.25;60.93;101304.53;1052624;28;672;-67
2022/08/22 04:18:36;;;;;;;;;;;;;;;21.26;61.14;101308.97;1049191;28;680;-67
2022/08/22 04:19:27;;;;;;;;;;;;;;;21.23;61.09;101299.28;1049819;28;683;-68
2022/08/22 04:20:19;;;;;;;;;;;;;;;21.25;61.17;101307.25;1048140;28;661;-67
2022/08/22 04:21:10;;;;;;;;;;;;;;;21.27;60.90;101299.81;1048580;28;700;-67
2022/08/22 04:22:01;;;;;;;;;;;;;;;21.24;60.95;101300.97;1053633;28;680;-67
2022/08/22 04:22:51;;;;;;;;;;;;;;;21.27;61.07;101310.66;1052629;28;849;-66
2022/08/22 04:23:42;;;;;;;;;;;;;;;21.28;61.14;101306.94;1054289;28;731;-66
2022/08/22 04:24:33;;;;;;;;;;;;;;;21.27;60.96;101303.38;1052515;28;796;-67
2022/08/22 04:25:24;;;;;;;;;;;;;;;21.26;61.03;101303.53;1052524;28;705;-67
2022/08/22 04:26:14;;;;;;;;;;;;;;;21.22;61.12;101318.41;1052570;28;724;-67
2022/08/22 04:27:05;;;;;;;;;;;;;;;21.24;61.02;101308.25;1049243;28;608;-67